createdAt,value
2023-04-18T00:00:35.822Z,93.88
2023-04-18T00:01:35.849Z,93.67
2023-04-18T00:02:36.199Z,95.59
2023-04-18T00:03:36.119Z,92.92
2023-04-18T00:04:36.053Z,92.71
2023-04-18T00:05:35.982Z,90.57
2023-04-18T00:06:36.017Z,93.61
2023-04-18T00:07:36.076Z,95.65
2023-04-18T00:08:36.060Z,95.59
2023-04-18T00:09:36.101Z,92.32
2023-04-18T00:10:36.159Z,94.68
2023-04-18T00:11:36.148Z,98.34
2023-04-18T00:12:36.210Z,97.57
2023-04-18T00:13:36.184Z,96.05
2023-04-18T00:14:36.205Z,94.64
2023-04-18T00:15:36.260Z,93.69
2023-04-18T00:16:36.330Z,96.95
2023-04-18T00:17:36.343Z,97.33
2023-04-18T00:18:36.327Z,94.29
2023-04-18T00:19:36.340Z,96.62
2023-04-18T00:20:36.366Z,97.86
2023-04-18T00:21:36.398Z,92.75
2023-04-18T00:22:36.411Z,92.49
2023-04-18T00:23:36.431Z,93.00
2023-04-18T00:24:36.469Z,94.36
2023-04-18T00:25:36.518Z,97.77
2023-04-18T00:26:36.545Z,96.70
2023-04-18T00:27:36.559Z,94.81
2023-04-18T00:28:36.586Z,93.80
2023-04-18T00:29:36.611Z,90.80
2023-04-18T00:30:36.642Z,92.76
2023-04-18T00:31:36.653Z,93.30
2023-04-18T00:32:36.717Z,96.45
2023-04-18T00:33:36.747Z,91.51
2023-04-18T00:34:36.792Z,91.54
2023-04-18T00:35:36.824Z,93.89
2023-04-18T00:36:36.824Z,96.72
2023-04-18T00:37:36.846Z,92.11
2023-04-18T00:38:36.895Z,94.14
2023-04-18T00:39:36.927Z,93.17
2023-04-18T00:40:36.969Z,94.25
2023-04-18T00:41:36.966Z,94.12
2023-04-18T00:42:37.021Z,94.05
2023-04-18T00:43:37.064Z,92.68
2023-04-18T00:44:37.122Z,93.93
2023-04-18T00:45:37.120Z,93.79
2023-04-18T00:46:37.250Z,90.96
2023-04-18T00:47:37.216Z,92.86
2023-04-18T00:48:37.218Z,93.93
2023-04-18T00:49:37.265Z,92.04
2023-04-18T00:50:37.289Z,90.80
2023-04-18T00:51:37.306Z,87.99
2023-04-18T00:52:37.359Z,89.66
2023-04-18T00:53:37.408Z,89.64
2023-04-18T00:54:37.437Z,91.81
2023-04-18T00:55:37.472Z,92.57
2023-04-18T00:56:37.499Z,91.39
2023-04-18T00:57:37.555Z,90.75
2023-04-18T00:58:37.579Z,88.09
2023-04-18T00:59:37.613Z,87.19
2023-04-18T01:00:37.634Z,87.18
2023-04-18T01:01:37.714Z,90.35
2023-04-18T01:02:37.808Z,89.91
2023-04-18T01:03:37.980Z,89.71
2023-04-18T01:04:37.865Z,89.61
2023-04-18T01:05:37.844Z,85.11
2023-04-18T01:06:37.876Z,85.65
2023-04-18T01:07:37.903Z,87.56
2023-04-18T01:08:37.977Z,87.02
2023-04-18T01:09:38.018Z,83.67
2023-04-18T01:10:38.014Z,85.10
2023-04-18T01:11:38.064Z,84.65
2023-04-18T01:12:38.126Z,82.88
2023-04-18T01:13:38.159Z,83.51
2023-04-18T01:14:38.185Z,84.97
2023-04-18T01:15:38.269Z,86.45
2023-04-18T01:16:38.269Z,86.03
2023-04-18T01:17:38.295Z,82.01
2023-04-18T01:18:38.347Z,77.84
2023-04-18T01:19:38.361Z,80.34
2023-04-18T01:20:38.388Z,80.27
2023-04-18T01:21:38.414Z,83.91
2023-04-18T01:22:38.516Z,81.18
2023-04-18T01:23:38.545Z,80.74
2023-04-18T01:24:38.563Z,74.55
2023-04-18T01:25:38.581Z,79.61
2023-04-18T01:26:38.621Z,78.84
2023-04-18T01:27:38.688Z,78.17
2023-04-18T01:28:38.704Z,81.61
2023-04-18T01:29:39.053Z,78.14
2023-04-18T01:30:38.770Z,80.79
2023-04-18T01:31:39.007Z,80.08
2023-04-18T01:32:38.899Z,74.81
2023-04-18T01:33:38.880Z,73.83
2023-04-18T01:34:38.943Z,78.29
2023-04-18T01:35:38.947Z,77.96
2023-04-18T01:36:39.057Z,81.56
2023-04-18T01:37:39.005Z,78.94
2023-04-18T01:38:39.070Z,79.56
2023-04-18T01:39:39.101Z,72.05
2023-04-18T01:40:39.136Z,73.94
2023-04-18T01:41:39.187Z,72.51
2023-04-18T01:42:39.224Z,74.19
2023-04-18T01:43:39.228Z,70.32
2023-04-18T01:44:39.300Z,74.42
2023-04-18T01:45:39.302Z,69.25
2023-04-18T01:46:39.393Z,64.49
2023-04-18T01:47:39.439Z,63.62
2023-04-18T01:48:39.441Z,59.87
2023-04-18T01:49:39.483Z,60.47
2023-04-18T01:50:39.499Z,58.37
2023-04-18T01:51:39.548Z,65.86
2023-04-18T01:52:39.585Z,63.16
2023-04-18T01:53:39.635Z,56.88
2023-04-18T01:54:39.656Z,58.62
2023-04-18T01:55:39.699Z,57.14
2023-04-18T01:56:39.712Z,56.72
2023-04-18T01:57:39.744Z,60.61
2023-04-18T01:58:39.785Z,56.98
2023-04-18T01:59:39.818Z,56.60
2023-04-18T02:00:39.880Z,57.25
2023-04-18T02:01:39.899Z,59.46
2023-04-18T02:02:40.010Z,59.35
2023-04-18T02:03:40.179Z,63.39
2023-04-18T02:04:39.990Z,66.67
2023-04-18T02:05:40.036Z,72.18
2023-04-18T02:06:40.052Z,69.24
2023-04-18T02:07:40.067Z,77.38
2023-04-18T02:08:40.102Z,77.28
2023-04-18T02:09:40.151Z,78.83
2023-04-18T02:10:40.149Z,80.42
2023-04-18T02:11:40.175Z,80.88
2023-04-18T02:12:40.208Z,82.09
2023-04-18T02:13:40.235Z,82.88
2023-04-18T02:14:40.241Z,84.02
2023-04-18T02:15:40.247Z,87.67
2023-04-18T02:16:40.336Z,90.11
2023-04-18T02:17:40.334Z,87.92
2023-04-18T02:18:40.322Z,91.32
2023-04-18T02:19:40.378Z,94.04
2023-04-18T02:20:40.394Z,98.14
2023-04-18T02:21:40.435Z,99.78
2023-04-18T02:22:40.421Z,108.15
2023-04-18T02:23:40.426Z,110.71
2023-04-18T02:24:40.451Z,108.11
2023-04-18T02:25:40.498Z,110.53
2023-04-18T02:26:40.499Z,113.80
2023-04-18T02:27:40.526Z,109.33
2023-04-18T02:28:40.551Z,107.04
2023-04-18T02:29:40.551Z,106.55
2023-04-18T02:30:40.590Z,106.88
2023-04-18T02:31:40.568Z,108.26
2023-04-18T02:32:40.603Z,105.08
2023-04-18T02:33:40.586Z,107.62
2023-04-18T02:34:40.603Z,103.67
2023-04-18T02:35:40.622Z,105.45
2023-04-18T02:36:40.588Z,104.57
2023-04-18T02:37:40.602Z,102.38
2023-04-18T02:38:40.615Z,103.35
2023-04-18T02:39:40.600Z,104.51
2023-04-18T02:40:40.618Z,103.87
2023-04-18T02:41:40.634Z,100.78
2023-04-18T02:42:40.626Z,101.96
2023-04-18T02:43:40.621Z,103.10
2023-04-18T02:44:40.643Z,100.63
2023-04-18T02:45:40.669Z,100.22
2023-04-18T02:46:40.613Z,98.44
2023-04-18T02:47:53.704Z,97.34
2023-04-18T02:48:41.645Z,97.58
2023-04-18T02:49:40.598Z,97.78
2023-04-18T02:50:41.439Z,96.59
2023-04-18T02:51:40.596Z,97.66
2023-04-18T02:52:40.618Z,96.40
2023-04-18T02:53:40.583Z,94.35
2023-04-18T02:54:40.591Z,93.27
2023-04-18T02:55:40.577Z,90.44
2023-04-18T02:56:40.535Z,89.28
2023-04-18T02:57:40.533Z,87.53
2023-04-18T02:58:40.565Z,88.59
2023-04-18T02:59:40.554Z,86.73
2023-04-18T03:00:40.516Z,86.96
2023-04-18T03:01:40.574Z,86.58
2023-04-18T03:02:40.596Z,86.25
2023-04-18T03:03:40.548Z,85.18
2023-04-18T03:04:40.556Z,87.17
2023-04-18T03:05:40.512Z,86.24
2023-04-18T03:06:40.497Z,86.71
2023-04-18T03:07:40.485Z,84.47
2023-04-18T03:08:40.472Z,82.54
2023-04-18T03:09:40.466Z,82.01
2023-04-18T03:10:40.456Z,84.45
2023-04-18T03:11:40.468Z,83.91
2023-04-18T03:12:40.426Z,83.16
2023-04-18T03:13:40.419Z,83.44
2023-04-18T03:14:40.433Z,82.44
2023-04-18T03:15:40.473Z,81.88
2023-04-18T03:16:40.448Z,80.03
2023-04-18T03:17:40.428Z,83.93
2023-04-18T03:18:40.404Z,80.13
2023-04-18T03:19:40.425Z,80.72
2023-04-18T03:20:40.400Z,80.23
2023-04-18T03:21:40.388Z,80.04
2023-04-18T03:22:40.385Z,79.21
2023-04-18T03:23:40.367Z,79.22
2023-04-18T03:24:40.372Z,79.68
2023-04-18T03:25:40.365Z,76.68
2023-04-18T03:26:40.327Z,77.84
2023-04-18T03:27:40.361Z,77.84
2023-04-18T03:28:40.352Z,77.63
2023-04-18T03:29:40.345Z,74.91
2023-04-18T03:30:40.328Z,76.37
2023-04-18T03:31:40.388Z,77.09
2023-04-18T03:32:40.352Z,77.85
2023-04-18T03:33:40.334Z,73.65
2023-04-18T03:34:40.298Z,72.88
2023-04-18T03:35:40.275Z,74.63
2023-04-18T03:36:40.262Z,74.73
2023-04-18T03:37:40.306Z,75.30
2023-04-18T03:38:40.260Z,73.29
2023-04-18T03:39:40.299Z,73.24
2023-04-18T03:40:40.266Z,74.02
2023-04-18T03:41:40.257Z,74.99
2023-04-18T03:42:40.271Z,73.16
2023-04-18T03:43:40.217Z,73.94
2023-04-18T03:44:40.238Z,71.36
2023-04-18T03:45:40.238Z,73.18
2023-04-18T03:46:40.306Z,72.32
2023-04-18T03:47:40.301Z,74.38
2023-04-18T03:48:40.205Z,75.17
2023-04-18T03:49:40.189Z,73.12
2023-04-18T03:50:40.178Z,74.44
2023-04-18T03:51:40.192Z,71.70
2023-04-18T03:52:40.213Z,71.84
2023-04-18T03:53:40.183Z,73.67
2023-04-18T03:54:40.160Z,70.42
2023-04-18T03:55:40.156Z,75.06
2023-04-18T03:56:40.124Z,75.61
2023-04-18T03:57:41.290Z,75.54
2023-04-18T03:58:40.178Z,75.32
2023-04-18T03:59:40.196Z,75.16
2023-04-18T04:00:40.184Z,73.40
2023-04-18T04:01:40.197Z,75.29
2023-04-18T04:02:40.396Z,77.36
2023-04-18T04:03:40.356Z,75.25
2023-04-18T04:04:40.303Z,77.26
2023-04-18T04:05:40.265Z,71.64
2023-04-18T04:06:40.285Z,74.64
2023-04-18T04:07:40.361Z,74.19
2023-04-18T04:08:40.313Z,70.34
2023-04-18T04:09:40.340Z,74.32
2023-04-18T04:10:40.379Z,71.69
2023-04-18T04:11:40.391Z,70.36
2023-04-18T04:12:40.414Z,72.53
2023-04-18T04:13:40.423Z,75.66
2023-04-18T04:14:40.432Z,72.46
2023-04-18T04:15:40.499Z,74.48
2023-04-18T04:16:40.519Z,75.15
2023-04-18T04:17:40.566Z,76.43
2023-04-18T04:18:40.614Z,77.24
2023-04-18T04:19:40.640Z,76.60
2023-04-18T04:20:40.688Z,79.20
2023-04-18T04:21:40.692Z,79.90
2023-04-18T04:22:40.714Z,78.70
2023-04-18T04:23:40.804Z,78.64
2023-04-18T04:24:40.803Z,79.11
2023-04-18T04:25:40.869Z,79.35
2023-04-18T04:26:40.893Z,80.00
2023-04-18T04:27:40.911Z,80.87
2023-04-18T04:28:40.976Z,81.87
2023-04-18T04:29:40.995Z,82.03
2023-04-18T04:30:41.090Z,81.77
2023-04-18T04:31:41.166Z,84.09
2023-04-18T04:32:41.228Z,82.61
2023-04-18T04:33:41.246Z,83.55
2023-04-18T04:34:41.349Z,83.34
2023-04-18T04:35:41.310Z,82.58
2023-04-18T04:36:41.437Z,84.64
2023-04-18T04:37:41.452Z,85.99
2023-04-18T04:38:41.500Z,84.89
2023-04-18T04:39:41.544Z,85.10
2023-04-18T04:40:41.565Z,85.43
2023-04-18T04:41:41.623Z,84.18
2023-04-18T04:42:41.703Z,85.61
2023-04-18T04:43:41.747Z,86.19
2023-04-18T04:44:41.872Z,86.92
2023-04-18T04:45:41.836Z,87.89
2023-04-18T04:46:41.876Z,87.35
2023-04-18T04:47:41.965Z,86.35
2023-04-18T04:48:41.966Z,84.61
2023-04-18T04:49:42.072Z,84.01
2023-04-18T04:50:42.083Z,82.05
2023-04-18T04:51:42.077Z,82.82
2023-04-18T04:52:42.185Z,83.28
2023-04-18T04:53:42.186Z,83.53
2023-04-18T04:54:42.225Z,83.98
2023-04-18T04:55:42.278Z,83.06
2023-04-18T04:56:42.307Z,83.86
2023-04-18T04:57:42.380Z,84.71
2023-04-18T04:58:42.419Z,82.96
2023-04-18T04:59:42.430Z,83.67
2023-04-18T05:00:49.562Z,84.89
2023-04-18T05:01:42.516Z,85.32
2023-04-18T05:02:42.573Z,85.90
2023-04-18T05:03:42.592Z,86.68
2023-04-18T05:04:42.587Z,87.08
2023-04-18T05:05:42.423Z,89.86
2023-04-18T05:06:42.419Z,87.36
2023-04-18T05:07:42.380Z,87.13
2023-04-18T05:08:42.383Z,87.27
2023-04-18T05:09:42.361Z,88.22
2023-04-18T05:10:42.407Z,89.50
2023-04-18T05:11:42.362Z,91.46
2023-04-18T05:12:42.344Z,90.09
2023-04-18T05:13:42.364Z,90.60
2023-04-18T05:14:42.365Z,88.97
2023-04-18T05:15:42.336Z,91.92
2023-04-18T05:16:42.330Z,89.93
2023-04-18T05:17:42.399Z,90.13
2023-04-18T05:18:42.371Z,89.69
2023-04-18T05:19:42.287Z,89.63
2023-04-18T05:20:42.319Z,93.21
2023-04-18T05:21:42.303Z,91.46
2023-04-18T05:22:42.283Z,91.95
2023-04-18T05:23:42.290Z,91.80
2023-04-18T05:24:42.302Z,93.03
2023-04-18T05:25:42.285Z,93.57
2023-04-18T05:26:42.233Z,92.51
2023-04-18T05:27:42.249Z,93.67
2023-04-18T05:28:42.248Z,93.91
2023-04-18T05:29:42.308Z,93.69
2023-04-18T05:30:42.292Z,94.37
2023-04-18T05:31:42.242Z,95.96
2023-04-18T05:32:42.245Z,97.00
2023-04-18T05:33:42.533Z,95.46
2023-04-18T05:34:42.190Z,94.39
2023-04-18T05:35:42.186Z,101.31
2023-04-18T05:36:42.198Z,102.50
2023-04-18T05:37:42.207Z,119.15
2023-04-18T05:38:42.537Z,133.67
2023-04-18T05:39:42.145Z,158.15
2023-04-18T05:40:42.170Z,157.69
2023-04-18T05:41:42.223Z,214.71
2023-04-18T05:42:42.168Z,210.49
2023-04-18T05:43:44.422Z,191.58
2023-04-18T05:44:42.142Z,186.88
2023-04-18T05:45:49.153Z,193.14
2023-04-18T05:46:42.190Z,192.49
2023-04-18T05:47:42.127Z,196.19
2023-04-18T05:48:42.557Z,197.02
2023-04-18T05:49:42.087Z,184.90
2023-04-18T05:50:42.096Z,202.32
2023-04-18T05:51:42.105Z,201.54
2023-04-18T05:52:42.124Z,231.92
2023-04-18T05:53:42.550Z,248.66
2023-04-18T05:54:42.100Z,250.00
2023-04-18T05:55:42.058Z,247.12
2023-04-18T05:56:42.051Z,249.72
2023-04-18T05:57:42.022Z,250.00
2023-04-18T05:58:42.081Z,250.00
2023-04-18T05:59:42.058Z,250.00
2023-04-18T06:00:42.082Z,250.00
2023-04-18T06:01:42.041Z,252.41
2023-04-18T06:02:42.133Z,248.42
2023-04-18T06:03:42.141Z,250.37
2023-04-18T06:04:42.188Z,248.08
2023-04-18T06:05:41.995Z,250.00
2023-04-18T06:06:41.992Z,247.84
2023-04-18T06:07:42.077Z,249.83
2023-04-18T06:08:41.988Z,251.75
2023-04-18T06:09:41.952Z,248.96
2023-04-18T06:10:41.984Z,250.00
2023-04-18T06:11:41.967Z,247.17
2023-04-18T06:12:41.929Z,243.61
2023-04-18T06:13:41.970Z,250.00
2023-04-18T06:14:41.974Z,250.59
2023-04-18T06:15:41.933Z,249.86
2023-04-18T06:16:41.977Z,250.00
2023-04-18T06:17:41.935Z,249.31
2023-04-18T06:18:42.081Z,248.84
2023-04-18T06:19:41.919Z,250.00
2023-04-18T06:20:41.970Z,250.00
2023-04-18T06:21:41.997Z,248.68
2023-04-18T06:22:41.946Z,247.22
2023-04-18T06:23:41.986Z,249.75
2023-04-18T06:24:41.999Z,248.91
2023-04-18T06:25:42.132Z,250.00
2023-04-18T06:26:42.042Z,247.00
2023-04-18T06:27:42.064Z,243.51
2023-04-18T06:28:42.099Z,246.89
2023-04-18T06:29:42.138Z,250.00
2023-04-18T06:30:42.196Z,247.16
2023-04-18T06:31:42.402Z,249.35
2023-04-18T06:32:42.260Z,245.36
2023-04-18T06:33:42.288Z,249.33
2023-04-18T06:34:42.206Z,248.83
2023-04-18T06:35:42.217Z,250.00
2023-04-18T06:36:42.207Z,248.77
2023-04-18T06:37:42.233Z,243.56
2023-04-18T06:38:42.560Z,233.47
2023-04-18T06:39:42.314Z,223.15
2023-04-18T06:40:42.318Z,223.25
2023-04-18T06:41:42.325Z,211.49
2023-04-18T06:42:42.398Z,200.31
2023-04-18T06:43:52.079Z,186.75
2023-04-18T06:44:43.461Z,186.85
2023-04-18T06:45:42.469Z,182.63
2023-04-18T06:46:42.416Z,176.22
2023-04-18T06:47:42.414Z,166.37
2023-04-18T06:48:42.411Z,164.73
2023-04-18T06:49:42.369Z,163.10
2023-04-18T06:50:42.393Z,153.69
2023-04-18T06:51:42.396Z,146.68
2023-04-18T06:52:42.400Z,139.08
2023-04-18T06:53:42.371Z,138.07
2023-04-18T06:54:42.470Z,134.67
2023-04-18T06:55:42.541Z,132.76
2023-04-18T06:56:42.504Z,126.12
2023-04-18T06:57:42.511Z,123.87
2023-04-18T06:58:42.578Z,127.21
2023-04-18T06:59:42.588Z,121.34
2023-04-18T07:00:42.629Z,119.70
2023-04-18T07:01:42.580Z,124.66
2023-04-18T07:02:42.659Z,126.80
2023-04-18T07:03:42.613Z,128.68
2023-04-18T07:04:42.676Z,125.82
2023-04-18T07:05:42.544Z,125.76
2023-04-18T07:06:42.579Z,126.89
2023-04-18T07:07:42.545Z,132.36
2023-04-18T07:08:42.601Z,126.26
2023-04-18T07:09:42.601Z,127.38
2023-04-18T07:10:42.574Z,126.70
2023-04-18T07:11:42.670Z,127.10
2023-04-18T07:12:42.648Z,125.09
2023-04-18T07:13:42.723Z,118.31
2023-04-18T07:14:43.065Z,118.56
2023-04-18T07:15:42.770Z,123.48
2023-04-18T07:16:42.841Z,122.12
2023-04-18T07:17:42.934Z,124.59
2023-04-18T07:18:42.930Z,125.66
2023-04-18T07:19:42.995Z,128.93
2023-04-18T07:20:43.081Z,131.61
2023-04-18T07:21:43.151Z,133.47
2023-04-18T07:22:43.215Z,124.20
2023-04-18T07:23:43.267Z,122.73
2023-04-18T07:24:43.338Z,120.32
2023-04-18T07:25:43.390Z,121.98
2023-04-18T07:26:43.481Z,128.14
2023-04-18T07:27:43.584Z,128.38
2023-04-18T07:28:43.618Z,118.71
2023-04-18T07:29:44.117Z,126.73
2023-04-18T07:30:43.759Z,116.70
2023-04-18T07:31:43.783Z,113.74
2023-04-18T07:32:43.863Z,122.49
2023-04-18T07:33:43.916Z,128.01
2023-04-18T07:34:43.929Z,139.71
2023-04-18T07:35:43.941Z,149.71
2023-04-18T07:36:43.921Z,154.36
2023-04-18T07:37:44.019Z,153.03
2023-04-18T07:38:44.040Z,154.33
2023-04-18T07:39:44.096Z,154.43
2023-04-18T07:40:44.084Z,153.43
2023-04-18T07:41:44.096Z,161.47
2023-04-18T07:42:44.076Z,163.84
2023-04-18T07:43:44.142Z,168.41
2023-04-18T07:44:44.074Z,176.07
2023-04-18T07:45:44.091Z,172.96
2023-04-18T07:46:44.135Z,173.18
2023-04-18T07:47:44.169Z,169.92
2023-04-18T07:48:44.131Z,172.09
2023-04-18T07:49:44.096Z,173.36
2023-04-18T07:50:44.103Z,177.67
2023-04-18T07:51:44.114Z,183.56
2023-04-18T07:52:44.175Z,183.37
2023-04-18T07:53:44.234Z,183.96
2023-04-18T07:54:44.300Z,185.78
2023-04-18T07:55:44.365Z,192.26
2023-04-18T07:56:44.386Z,192.49
2023-04-18T07:57:45.859Z,197.68
2023-04-18T07:58:44.498Z,201.98
2023-04-18T07:59:44.647Z,199.26
2023-04-18T08:00:44.609Z,194.74
2023-04-18T08:01:44.662Z,188.09
2023-04-18T08:02:44.713Z,191.23
2023-04-18T08:03:44.816Z,195.21
2023-04-18T08:04:44.893Z,194.51
2023-04-18T08:05:44.780Z,195.96
2023-04-18T08:06:44.776Z,198.74
2023-04-18T08:07:44.867Z,202.56
2023-04-18T08:08:44.912Z,205.88
2023-04-18T08:09:44.894Z,208.49
2023-04-18T08:10:44.869Z,215.54
2023-04-18T08:11:44.933Z,220.68
2023-04-18T08:12:44.912Z,224.82
2023-04-18T08:13:44.955Z,226.23
2023-04-18T08:14:44.987Z,229.33
2023-04-18T08:15:45.119Z,230.66
2023-04-18T08:16:44.955Z,237.84
2023-04-18T08:17:45.064Z,239.43
2023-04-18T08:18:44.981Z,248.01
2023-04-18T08:19:44.950Z,242.62
2023-04-18T08:20:45.033Z,242.57
2023-04-18T08:21:44.997Z,244.00
2023-04-18T08:23:01.973Z,248.46
2023-04-18T08:23:45.974Z,246.53
2023-04-18T08:24:57.456Z,242.76
2023-04-18T08:25:45.980Z,242.07
2023-04-18T08:26:44.972Z,236.97
2023-04-18T08:27:44.950Z,234.54
2023-04-18T08:28:46.585Z,232.57
2023-04-18T08:29:45.090Z,228.76
2023-04-18T08:30:44.921Z,221.56
2023-04-18T08:31:45.038Z,194.79
2023-04-18T08:32:44.956Z,189.26
2023-04-18T08:33:44.952Z,178.38
2023-04-18T08:34:45.129Z,167.75
2023-04-18T08:35:44.893Z,131.66
2023-04-18T08:36:45.658Z,107.00
2023-04-18T08:37:44.881Z,81.94
2023-04-18T08:38:44.862Z,62.09
2023-04-18T08:39:44.866Z,51.96
2023-04-18T08:40:44.854Z,47.02
2023-04-18T08:41:44.829Z,38.65
2023-04-18T08:42:44.834Z,28.53
2023-04-18T08:43:44.818Z,25.63
2023-04-18T08:44:44.839Z,24.69
2023-04-18T08:45:44.988Z,24.66
2023-04-18T08:46:45.008Z,25.00
2023-04-18T08:47:45.108Z,25.00
2023-04-18T08:48:45.076Z,25.17
2023-04-18T08:49:45.148Z,26.85
2023-04-18T08:50:45.098Z,30.43
2023-04-18T08:51:45.068Z,50.67
2023-04-18T08:52:45.042Z,77.35
2023-04-18T08:53:45.097Z,52.04
2023-04-18T08:54:45.084Z,51.97
2023-04-18T08:55:45.108Z,80.63
2023-04-18T08:56:45.119Z,57.53
2023-04-18T08:57:45.142Z,56.00
2023-04-18T08:58:45.225Z,58.04
2023-04-18T08:59:47.114Z,72.26
2023-04-18T09:00:45.129Z,74.41
2023-04-18T09:01:45.197Z,78.84
2023-04-18T09:02:45.349Z,74.69
2023-04-18T09:03:45.313Z,74.96
2023-04-18T09:04:45.145Z,72.83
2023-04-18T09:05:45.116Z,64.62
2023-04-18T09:06:45.101Z,53.50
2023-04-18T09:07:45.114Z,51.12
2023-04-18T09:08:45.102Z,57.50
2023-04-18T09:09:45.128Z,63.37
2023-04-18T09:10:46.755Z,53.51
2023-04-18T09:11:45.044Z,52.87
2023-04-18T09:12:45.048Z,47.17
2023-04-18T09:13:45.084Z,50.96
2023-04-18T09:14:45.076Z,60.48
2023-04-18T09:15:45.068Z,65.72
2023-04-18T09:16:45.078Z,58.34
2023-04-18T09:17:45.090Z,60.24
2023-04-18T09:18:45.018Z,41.74
2023-04-18T09:19:45.392Z,41.43
2023-04-18T09:20:44.998Z,41.95
2023-04-18T09:21:45.009Z,42.54
2023-04-18T09:22:45.032Z,35.51
2023-04-18T09:23:45.011Z,29.21
2023-04-18T09:24:45.191Z,31.01
2023-04-18T09:25:45.410Z,36.27
2023-04-18T09:26:44.987Z,27.64
2023-04-18T09:27:44.963Z,25.00
2023-04-18T09:28:45.020Z,31.77
2023-04-18T09:29:44.993Z,25.06
2023-04-18T09:30:45.049Z,29.57
2023-04-18T09:31:45.016Z,32.75
2023-04-18T09:32:45.079Z,25.84
2023-04-18T09:33:45.017Z,25.82
2023-04-18T09:34:45.071Z,26.11
2023-04-18T09:35:45.026Z,24.59
2023-04-18T09:36:45.112Z,25.00
2023-04-18T09:37:45.052Z,27.41
2023-04-18T09:38:45.012Z,25.61
2023-04-18T09:39:45.108Z,22.12
2023-04-18T09:40:45.140Z,27.13
2023-04-18T09:41:46.907Z,31.85
2023-04-18T09:42:45.292Z,21.46
2023-04-18T09:43:45.050Z,40.47
2023-04-18T09:44:45.101Z,64.55
2023-04-18T09:45:45.171Z,92.62
2023-04-18T09:46:47.154Z,110.20
2023-04-18T09:47:45.320Z,121.66
2023-04-18T09:48:45.300Z,131.24
2023-04-18T09:49:45.290Z,131.85
2023-04-18T09:50:45.680Z,133.32
2023-04-18T09:51:45.300Z,127.84
2023-04-18T09:52:45.378Z,122.02
2023-04-18T09:53:45.364Z,120.96
2023-04-18T09:54:47.115Z,118.70
2023-04-18T09:55:45.352Z,129.89
2023-04-18T09:56:45.359Z,117.23
2023-04-18T09:57:45.328Z,104.25
2023-04-18T09:58:45.323Z,99.89
2023-04-18T09:59:45.341Z,97.55
2023-04-18T10:00:46.925Z,95.95
2023-04-18T10:01:45.350Z,94.34
2023-04-18T10:02:45.377Z,87.17
2023-04-18T10:03:45.361Z,86.63
2023-04-18T10:04:45.357Z,81.94
2023-04-18T10:05:45.338Z,81.43
2023-04-18T10:06:45.272Z,84.30
2023-04-18T10:07:45.244Z,76.79
2023-04-18T10:08:45.296Z,65.71
2023-04-18T10:09:45.235Z,67.47
2023-04-18T10:10:45.286Z,74.65
2023-04-18T10:11:45.245Z,83.29
2023-04-18T10:12:45.209Z,87.23
2023-04-18T10:13:45.231Z,80.10
2023-04-18T10:14:45.296Z,80.92
2023-04-18T10:15:45.733Z,87.34
2023-04-18T10:16:45.441Z,87.64
2023-04-18T10:17:56.201Z,88.01
2023-04-18T10:18:46.506Z,88.28
2023-04-18T10:19:45.495Z,89.76
2023-04-18T10:20:45.650Z,89.13
2023-04-18T10:21:45.446Z,85.78
2023-04-18T10:22:45.452Z,88.16
2023-04-18T10:23:45.601Z,97.43
2023-04-18T10:24:45.424Z,103.65
2023-04-18T10:25:45.459Z,106.16
2023-04-18T10:26:45.431Z,118.88
2023-04-18T10:27:45.462Z,115.15
2023-04-18T10:28:46.015Z,119.82
2023-04-18T10:29:45.608Z,123.48
2023-04-18T10:30:46.175Z,122.29
2023-04-18T10:31:45.764Z,119.73
2023-04-18T10:32:45.788Z,110.45
2023-04-18T10:33:52.808Z,108.25
2023-04-18T10:34:46.813Z,108.25
2023-04-18T10:35:46.166Z,109.16
2023-04-18T10:36:45.815Z,110.57
2023-04-18T10:37:45.774Z,119.10
2023-04-18T10:38:45.827Z,144.25
2023-04-18T10:39:45.867Z,157.18
2023-04-18T10:40:46.200Z,161.72
2023-04-18T10:41:45.859Z,158.96
2023-04-18T10:42:45.753Z,130.37
2023-04-18T10:43:45.749Z,105.02
2023-04-18T10:44:45.782Z,88.01
2023-04-18T10:45:45.923Z,82.63
2023-04-18T10:46:45.936Z,80.48
2023-04-18T10:47:46.060Z,74.79
2023-04-18T10:48:46.089Z,72.87
2023-04-18T10:49:46.027Z,79.59
2023-04-18T10:50:46.067Z,61.55
2023-04-18T10:51:46.195Z,44.34
2023-04-18T10:52:46.081Z,35.76
2023-04-18T10:53:46.093Z,30.57
2023-04-18T10:54:46.106Z,26.56
2023-04-18T10:55:46.112Z,41.32
2023-04-18T10:56:46.179Z,52.81
2023-04-18T10:57:46.112Z,57.50
2023-04-18T10:58:46.114Z,50.36
2023-04-18T10:59:46.143Z,40.61
2023-04-18T11:00:46.162Z,32.99
2023-04-18T11:01:46.139Z,32.33
2023-04-18T11:02:46.242Z,24.99
2023-04-18T11:03:46.186Z,21.45
2023-04-18T11:04:46.109Z,24.13
2023-04-18T11:05:46.094Z,19.08
2023-04-18T11:06:46.172Z,13.90
2023-04-18T11:07:46.142Z,18.91
2023-04-18T11:08:46.678Z,25.00
2023-04-18T11:09:46.193Z,28.90
2023-04-18T11:10:46.167Z,32.44
2023-04-18T11:11:46.250Z,27.40
2023-04-18T11:12:46.214Z,25.63
2023-04-18T11:13:46.253Z,25.00
2023-04-18T11:14:46.296Z,25.46
2023-04-18T11:15:46.287Z,20.86
2023-04-18T11:16:46.318Z,34.13
2023-04-18T11:17:46.391Z,25.25
2023-04-18T11:18:46.357Z,35.17
2023-04-18T11:19:46.372Z,46.09
2023-04-18T11:20:46.378Z,59.61
2023-04-18T11:21:46.689Z,70.86
2023-04-18T11:22:46.383Z,84.14
2023-04-18T11:23:46.396Z,92.70
2023-04-18T11:24:46.356Z,108.02
2023-04-18T11:25:46.401Z,118.60
2023-04-18T11:26:46.450Z,126.42
2023-04-18T11:27:46.519Z,137.60
2023-04-18T11:28:46.572Z,147.46
2023-04-18T11:29:47.679Z,154.27
2023-04-18T11:30:46.666Z,161.08
2023-04-18T11:31:47.280Z,194.47
2023-04-18T11:32:46.795Z,211.53
2023-04-18T11:33:46.770Z,212.99
2023-04-18T11:34:47.178Z,210.83
2023-04-18T11:35:46.872Z,208.08
2023-04-18T11:36:47.169Z,207.86
2023-04-18T11:37:46.891Z,207.96
2023-04-18T11:38:46.941Z,208.60
2023-04-18T11:39:47.231Z,203.52
2023-04-18T11:40:47.021Z,206.35
2023-04-18T11:41:47.188Z,207.33
2023-04-18T11:42:47.125Z,196.48
2023-04-18T11:43:47.186Z,196.12
2023-04-18T11:44:47.254Z,195.34
2023-04-18T11:45:47.294Z,200.84
2023-04-18T11:46:47.672Z,204.91
2023-04-18T11:47:47.412Z,207.51
2023-04-18T11:48:47.453Z,204.69
2023-04-18T11:49:47.529Z,205.36
2023-04-18T11:50:47.605Z,205.00
2023-04-18T11:51:47.594Z,206.19
2023-04-18T11:52:47.729Z,205.22
2023-04-18T11:53:47.721Z,201.87
2023-04-18T11:54:47.832Z,199.03
2023-04-18T11:55:47.860Z,196.32
2023-04-18T11:56:47.946Z,189.60
2023-04-18T11:57:48.006Z,193.12
2023-04-18T11:58:48.018Z,191.17
2023-04-18T11:59:48.145Z,193.08
2023-04-18T12:00:48.132Z,192.55
2023-04-18T12:01:48.351Z,192.24
2023-04-18T12:02:48.338Z,188.13
2023-04-18T12:03:48.549Z,193.04
2023-04-18T12:04:48.562Z,191.45
2023-04-18T12:05:48.732Z,191.21
2023-04-18T12:06:48.540Z,190.43
2023-04-18T12:07:48.563Z,185.52
2023-04-18T12:08:48.655Z,181.24
2023-04-18T12:09:48.670Z,173.67
2023-04-18T12:10:48.764Z,164.10
2023-04-18T12:11:48.811Z,165.90
2023-04-18T12:12:48.817Z,168.58
2023-04-18T12:13:48.894Z,169.48
2023-04-18T12:14:48.984Z,170.52
2023-04-18T12:15:49.103Z,167.08
2023-04-18T12:16:49.081Z,171.34
2023-04-18T12:17:49.158Z,167.31
2023-04-18T12:18:49.174Z,165.73
2023-04-18T12:19:49.876Z,161.95
2023-04-18T12:20:49.280Z,160.38
2023-04-18T12:21:49.352Z,159.00
2023-04-18T12:22:49.429Z,159.02
2023-04-18T12:23:49.466Z,159.16
2023-04-18T12:24:49.493Z,157.01
2023-04-18T12:25:49.550Z,156.43
2023-04-18T12:26:49.590Z,155.74
2023-04-18T12:27:49.675Z,154.54
2023-04-18T12:28:49.658Z,155.42
2023-04-18T12:29:49.682Z,151.20
2023-04-18T12:30:49.752Z,144.41
2023-04-18T12:31:49.798Z,145.85
2023-04-18T12:32:49.892Z,144.92
2023-04-18T12:33:49.863Z,145.58
2023-04-18T12:34:49.950Z,149.41
2023-04-18T12:35:49.950Z,150.60
2023-04-18T12:36:50.006Z,152.24
2023-04-18T12:37:50.008Z,145.42
2023-04-18T12:38:50.050Z,143.68
2023-04-18T12:39:50.078Z,142.13
2023-04-18T12:40:50.118Z,138.91
2023-04-18T12:41:50.138Z,140.91
2023-04-18T12:42:50.145Z,141.74